Time;durP1;ratioP1;P1;durP2;ratioP2;P2;SDS_P1;SDS_P2;PMS_P1;PMS_P2;Temp;Humidity;BMP_temperature;BMP_pressure;BME280_temperature;BME280_humidity;BME280_pressure;Samples;Min_cycle;Max_cycle;Signal;HPM_P1;HPM_P2
2022/02/04 00:22:58;;;;;;;55.10;18.73;;;10.20;95.40;;;;;;6234988;23;20445;-60
2022/02/04 00:28:04;;;;;;;67.75;17.90;;;10.10;95.30;;;;;;6209995;23;20004;-64
2022/02/04 00:30:36;;;;;;;60.97;18.30;;;10.10;95.30;;;;;;6234171;23;20069;-63
2022/02/04 00:33:03;;;;;;;46.35;16.92;;;10.10;95.30;;;;;;6234225;23;20103;-63
2022/02/04 00:35:39;;;;;;;52.78;16.70;;;10.10;95.30;;;;;;6183161;23;20821;-61
2022/02/04 00:38:19;;;;;;;59.95;18.67;;;10.10;95.30;;;;;;6237923;23;20486;-61
2022/02/04 00:40:48;;;;;;;57.97;19.10;;;10.10;95.30;;;;;;6208229;23;20797;-59
2022/02/04 00:43:15;;;;;;;58.20;19.88;;;10.00;95.20;;;;;;6208464;23;20308;-60
2022/02/04 00:56:23;;;;;;;46.35;19.10;;;9.90;95.10;;;;;;6234709;23;20035;-59
2022/02/04 01:26:07;;;;;;;36.95;17.55;;;9.70;94.90;;;;;;6235293;23;20015;-61
2022/02/04 01:28:34;;;;;;;42.92;17.67;;;9.70;94.90;;;;;;6212164;23;20140;-64
2022/02/04 01:31:00;;;;;;;46.25;17.73;;;9.70;94.90;;;;;;6238544;23;20004;-63
2022/02/04 01:33:26;;;;;;;43.25;17.65;;;9.60;94.90;;;;;;6237587;23;20469;-61
2022/02/04 01:35:53;;;;;;;44.90;16.95;;;9.60;95.00;;;;;;6209202;23;20008;-62
2022/02/04 01:38:18;;;;;;;37.42;17.73;;;9.60;95.00;;;;;;6207898;23;20027;-61
2022/02/04 01:40:44;;;;;;;44.72;15.73;;;9.60;95.00;;;;;;6235281;23;20051;-63
2022/02/04 01:43:09;;;;;;;40.47;16.98;;;9.50;95.00;;;;;;6234607;23;20008;-63
2022/02/04 01:45:35;;;;;;;36.83;16.38;;;9.60;95.00;;;;;;6209026;23;20000;-58
2022/02/04 01:48:01;;;;;;;47.47;17.23;;;9.50;95.00;;;;;;6236087;23;20008;-59
2022/02/04 01:50:28;;;;;;;38.33;16.00;;;9.50;95.10;;;;;;6182278;23;20484;-60
2022/02/04 01:52:58;;;;;;;41.58;17.00;;;9.50;95.10;;;;;;6180852;23;20314;-59
2022/02/04 01:55:24;;;;;;;36.72;14.80;;;9.50;95.00;;;;;;6236771;23;19996;-62
2022/02/04 01:57:50;;;;;;;36.20;15.15;;;9.50;94.90;;;;;;6236135;23;20062;-62
2022/02/04 02:00:15;;;;;;;41.28;15.38;;;9.50;94.90;;;;;;6208490;23;20004;-64
2022/02/04 02:02:41;;;;;;;37.75;15.63;;;9.50;94.90;;;;;;6208368;23;20011;-63
2022/02/04 02:05:07;;;;;;;33.80;14.75;;;9.40;94.90;;;;;;6182713;23;20008;-60
2022/02/04 02:07:40;;;;;;;31.85;15.48;;;9.40;94.80;;;;;;6182588;23;20283;-59
2022/02/04 02:10:10;;;;;;;39.42;14.23;;;9.40;94.90;;;;;;6211900;23;20011;-62
2022/02/04 02:12:46;;;;;;;37.35;15.75;;;9.40;94.90;;;;;;6235383;23;20307;-61
2022/02/04 02:15:22;;;;;;;41.03;15.82;;;9.40;94.90;;;;;;6209745;23;20078;-59
2022/02/04 02:40:40;;;;;;;39.25;17.20;;;9.20;95.00;;;;;;6208991;23;20023;-61
2022/02/04 02:59:01;;;;;;;38.33;16.50;;;9.10;94.80;;;;;;6234229;23;20118;-60
2022/02/04 03:01:28;;;;;;;36.28;16.20;;;9.10;94.80;;;;;;6237072;23;20445;-59
2022/02/04 03:03:56;;;;;;;32.17;15.75;;;9.10;94.80;;;;;;6160491;23;20426;-63
2022/02/04 03:06:22;;;;;;;35.65;15.35;;;9.00;94.90;;;;;;6184505;23;20004;-61
2022/02/04 03:08:48;;;;;;;22.40;14.50;;;9.00;94.90;;;;;;6205358;23;20354;-61
2022/02/04 03:11:14;;;;;;;36.67;15.88;;;9.00;94.90;;;;;;6181791;23;20079;-61
2022/02/04 03:13:42;;;;;;;30.63;15.65;;;9.00;94.90;;;;;;6236095;23;20054;-61
2022/02/04 03:16:10;;;;;;;27.80;15.15;;;9.00;94.90;;;;;;6236217;23;20008;-61
2022/02/04 03:18:39;;;;;;;35.92;15.23;;;8.90;94.90;;;;;;6208997;23;19996;-59
2022/02/04 03:21:14;;;;;;;41.85;15.90;;;9.00;94.80;;;;;;6207679;23;20026;-58
2022/02/04 03:23:42;;;;;;;;;;;9.00;94.90;;;;;;6233047;23;20936;-62
2022/02/04 03:26:21;;;;;;;27.70;14.50;;;8.90;94.80;;;;;;6209662;23;19938;-61
2022/02/04 03:28:46;;;;;;;28.92;14.57;;;8.90;94.80;;;;;;6235992;23;20085;-62
2022/02/04 03:31:12;;;;;;;25.13;13.65;;;8.90;94.80;;;;;;6235943;23;20008;-61
2022/02/04 03:33:40;;;;;;;37.05;14.93;;;8.90;94.90;;;;;;6182218;23;20004;-62
2022/02/04 03:36:05;;;;;;;27.17;14.90;;;8.90;94.90;;;;;;6234467;23;20028;-61
2022/02/04 03:38:31;;;;;;;30.48;14.18;;;8.90;95.00;;;;;;6233142;23;20039;-61
2022/02/04 03:40:56;;;;;;;22.30;13.52;;;8.80;94.90;;;;;;6236151;23;20058;-60
2022/02/04 03:43:22;;;;;;;29.67;13.55;;;8.80;95.00;;;;;;6207947;23;20054;-60
2022/02/04 03:45:47;;;;;;;30.15;14.90;;;8.80;95.00;;;;;;6234535;23;20008;-63
2022/02/04 03:48:13;;;;;;;27.38;15.88;;;8.80;95.00;;;;;;6206121;23;20619;-62
2022/02/04 03:50:38;;;;;;;33.15;17.52;;;8.80;95.00;;;;;;6207387;23;20398;-59
2022/02/04 03:53:10;;;;;;;28.83;15.35;;;8.80;95.00;;;;;;6206889;23;20094;-62
2022/02/04 03:55:36;;;;;;;26.40;15.18;;;8.80;95.00;;;;;;6207110;23;20471;-63
2022/02/04 03:58:01;;;;;;;28.08;14.68;;;8.80;95.00;;;;;;6203909;23;20103;-62
2022/02/04 04:00:27;;;;;;;29.75;14.80;;;8.80;95.00;;;;;;6234254;23;20123;-60
2022/02/04 04:02:52;;;;;;;29.17;14.63;;;8.80;95.00;;;;;;6206364;23;20161;-61
2022/02/04 04:05:18;;;;;;;28.65;15.00;;;8.80;95.00;;;;;;6236124;23;20425;-59
2022/02/04 04:07:47;;;;;;;29.17;14.85;;;8.70;95.10;;;;;;6235944;23;20097;-63
2022/02/04 04:10:18;;;;;;;28.23;14.48;;;8.70;95.10;;;;;;6236161;23;20291;-63
2022/02/04 04:12:43;;;;;;;29.75;13.98;;;8.70;95.10;;;;;;6208603;23;20286;-59
2022/02/04 04:15:10;;;;;;;30.20;14.88;;;8.70;95.10;;;;;;6234816;23;20000;-62
2022/02/04 04:17:41;;;;;;;28.15;14.85;;;8.70;95.10;;;;;;6234642;23;20012;-62
2022/02/04 04:20:18;;;;;;;21.55;13.85;;;8.70;95.20;;;;;;6235827;23;20000;-59
2022/02/04 04:22:43;;;;;;;28.08;14.90;;;8.70;95.20;;;;;;6207959;23;20108;-63
2022/02/04 04:25:09;;;;;;;26.63;13.80;;;8.70;95.20;;;;;;6233059;23;20083;-62
2022/02/04 04:27:35;;;;;;;25.45;13.98;;;8.70;95.30;;;;;;6232749;23;20016;-58
2022/02/04 04:30:00;;;;;;;24.45;14.63;;;8.70;95.30;;;;;;6234378;23;20330;-61
2022/02/04 04:32:26;;;;;;;24.63;14.30;;;8.70;95.40;;;;;;6208675;23;20371;-59
2022/02/04 04:34:51;;;;;;;27.75;14.27;;;8.70;95.40;;;;;;6236315;23;20004;-63
2022/02/04 04:37:17;;;;;;;24.77;13.88;;;8.70;95.40;;;;;;6233670;23;20016;-62
2022/02/04 04:40:34;;;;;;;25.45;13.90;;;8.70;95.40;;;;;;6233910;23;20011;-61
2022/02/04 05:30:52;;;;;;;22.48;14.48;;;8.60;95.50;;;;;;6233297;23;20038;-63
2022/02/04 05:33:18;;;;;;;28.73;13.77;;;8.60;95.50;;;;;;6181682;23;20612;-58
2022/02/04 05:35:43;;;;;;;26.77;13.75;;;8.60;95.50;;;;;;6233977;23;20023;-61
2022/02/04 05:38:11;;;;;;;25.23;14.70;;;8.60;95.50;;;;;;6234006;23;20719;-60
2022/02/04 05:40:41;;;;;;;23.60;14.32;;;8.60;95.50;;;;;;6235674;23;20031;-61
2022/02/04 05:43:15;;;;;;;21.15;14.57;;;8.60;95.50;;;;;;6233518;23;20012;-62
2022/02/04 05:45:43;;;;;;;21.08;13.82;;;8.60;95.50;;;;;;6233340;23;20020;-59
2022/02/04 05:48:09;;;;;;;26.92;14.40;;;8.60;95.50;;;;;;6206780;23;20096;-61
2022/02/04 05:53:20;;;;;;;25.13;14.85;;;8.60;95.50;;;;;;6182722;23;20008;-59
2022/02/04 05:58:30;;;;;;;53.63;16.88;;;8.60;95.50;;;;;;6232518;23;19903;-62
2022/02/04 06:06:39;;;;;;;228.25;27.02;;;8.50;95.60;;;;;;6219711;23;20503;-62
2022/02/04 06:24:47;;;;;;;147.50;24.38;;;8.50;95.70;;;;;;6234989;23;20221;-62
2022/02/04 06:27:13;;;;;;;144.90;23.90;;;8.50;95.70;;;;;;6183669;23;20330;-62
2022/02/04 06:29:38;;;;;;;120.20;21.40;;;8.50;95.70;;;;;;6209386;23;20000;-60
2022/02/04 06:32:04;;;;;;;113.63;19.77;;;8.50;95.70;;;;;;6185107;23;20085;-62
2022/02/04 06:34:30;;;;;;;101.18;19.33;;;8.50;95.70;;;;;;6235804;23;20047;-64
2022/02/04 06:36:55;;;;;;;95.60;21.45;;;8.40;95.60;;;;;;6207315;23;20027;-62
2022/02/04 06:39:21;;;;;;;102.25;21.70;;;8.40;95.60;;;;;;6207988;23;20004;-61
2022/02/04 06:41:46;;;;;;;91.88;18.05;;;8.40;95.60;;;;;;6235724;23;20201;-62
2022/02/04 06:44:12;;;;;;;99.30;20.00;;;8.40;95.60;;;;;;6208984;23;20076;-58
2022/02/04 06:46:38;;;;;;;105.68;18.63;;;8.40;95.60;;;;;;6209011;23;20111;-60
2022/02/04 06:49:04;;;;;;;85.05;18.85;;;8.40;95.60;;;;;;6235158;23;20012;-60
2022/02/04 06:51:29;;;;;;;94.88;19.15;;;8.40;95.60;;;;;;6235607;23;20085;-60
2022/02/04 06:53:55;;;;;;;95.68;19.40;;;8.40;95.60;;;;;;6207491;23;20065;-61
2022/02/04 06:56:21;;;;;;;90.57;17.77;;;8.40;95.60;;;;;;6235684;23;20050;-59
2022/02/04 06:58:46;;;;;;;110.13;18.17;;;8.40;95.50;;;;;;6234687;23;20000;-58
2022/02/04 07:01:12;;;;;;;103.60;18.13;;;8.40;95.50;;;;;;6233142;23;20004;-63
2022/02/04 07:03:37;;;;;;;86.57;18.17;;;8.30;95.50;;;;;;6232722;23;20004;-63
2022/02/04 07:06:05;;;;;;;93.93;18.90;;;8.30;95.50;;;;;;6183070;23;20041;-63
2022/02/04 07:11:16;;;;;;;113.13;19.00;;;8.30;95.50;;;;;;6208280;23;20154;-63
2022/02/04 07:21:36;;;;;;;70.65;15.90;;;8.30;95.30;;;;;;6212532;23;20191;-60
2022/02/04 07:24:01;;;;;;;73.47;17.40;;;8.30;95.30;;;;;;6234792;23;20004;-60
2022/02/04 07:26:30;;;;;;;62.50;17.30;;;8.30;95.30;;;;;;6207774;23;20015;-62
2022/02/04 07:29:02;;;;;;;72.75;18.42;;;8.30;95.30;;;;;;6207586;23;20048;-61
2022/02/04 07:31:31;;;;;;;54.25;15.70;;;8.30;95.20;;;;;;6206818;23;20185;-61
2022/02/04 07:41:46;;;;;;;56.38;16.02;;;8.20;95.10;;;;;;6232014;23;20095;-62
2022/02/04 07:44:12;;;;;;;52.53;15.75;;;8.20;95.10;;;;;;6233024;23;20388;-62
2022/02/04 07:46:38;;;;;;;54.55;15.02;;;8.20;95.10;;;;;;6207336;23;20043;-61
2022/02/04 07:49:03;;;;;;;35.97;13.93;;;8.20;95.10;;;;;;6208195;23;20309;-60
2022/02/04 07:51:29;;;;;;;72.45;16.50;;;8.20;95.10;;;;;;6208085;23;20027;-62
2022/02/04 07:53:54;;;;;;;50.08;15.52;;;8.20;95.20;;;;;;6204457;23;20054;-63
2022/02/04 07:56:22;;;;;;;43.03;14.73;;;8.20;95.20;;;;;;6180579;23;20057;-62
2022/02/04 07:58:54;;;;;;;59.67;16.08;;;8.20;95.20;;;;;;6232479;23;20012;-60
2022/02/04 08:01:25;;;;;;;52.20;15.27;;;8.20;95.20;;;;;;6182586;23;20007;-62
2022/02/04 08:03:56;;;;;;;34.40;14.25;;;8.20;95.20;;;;;;6181273;23;20000;-59
2022/02/04 08:06:24;;;;;;;42.33;14.80;;;8.20;95.20;;;;;;6206395;23;20093;-59
2022/02/04 08:08:59;;;;;;;82.75;17.75;;;8.30;95.20;;;;;;6207945;23;20000;-60
2022/02/04 08:11:42;;;;;;;59.10;16.50;;;8.20;95.20;;;;;;6231773;23;20012;-62
2022/02/04 08:14:24;;;;;;;75.80;17.40;;;8.30;95.20;;;;;;6186224;23;20019;-61
2022/02/04 08:30:52;;;;;;;93.72;19.13;;;8.40;95.50;;;;;;6236148;23;20012;-63
2022/02/04 08:38:23;;;;;;;82.80;20.05;;;8.40;95.60;;;;;;6234129;23;20509;-60
2022/02/04 08:55:08;;;;;;;111.72;19.67;;;8.50;95.90;;;;;;6209797;23;20051;-61
2022/02/04 08:59:53;;;;;;;72.05;17.95;;;8.50;95.90;;;;;;6179882;23;20012;-59
2022/02/04 09:02:32;;;;;;;104.68;21.40;;;8.50;95.90;;;;;;6208736;23;20582;-63
2022/02/04 09:04:59;;;;;;;77.55;19.65;;;8.50;95.80;;;;;;6205720;23;20028;-62
2022/02/04 09:07:30;;;;;;;116.93;19.52;;;8.50;95.90;;;;;;6208313;23;20004;-59
2022/02/04 09:09:59;;;;;;;110.10;22.25;;;8.50;95.90;;;;;;6235300;23;20385;-63
2022/02/04 09:23:13;;;;;;;95.85;20.33;;;8.50;95.80;;;;;;6157352;23;20996;-63
2022/02/04 09:25:39;;;;;;;90.30;18.17;;;8.50;95.70;;;;;;6206487;23;20000;-62
2022/02/04 09:28:05;;;;;;;104.10;20.27;;;8.50;95.60;;;;;;6232651;23;20099;-60
2022/02/04 09:30:30;;;;;;;87.40;19.13;;;8.50;95.70;;;;;;6206780;23;20092;-61
2022/02/04 09:32:56;;;;;;;88.85;18.45;;;8.50;95.60;;;;;;6232215;23;20087;-60
2022/02/04 09:35:23;;;;;;;95.75;18.88;;;8.50;95.60;;;;;;6182260;23;20084;-61
2022/02/04 09:37:51;;;;;;;88.72;18.90;;;8.60;95.50;;;;;;6179492;23;20015;-60
2022/02/04 09:40:17;;;;;;;81.25;19.77;;;8.60;95.50;;;;;;6231796;23;20072;-62
2022/02/04 09:42:43;;;;;;;122.20;20.98;;;8.60;95.60;;;;;;6205477;23;20008;-62
2022/02/04 09:45:10;;;;;;;107.45;20.40;;;8.60;95.60;;;;;;6234654;23;20013;-61
2022/02/04 09:47:37;;;;;;;116.57;20.90;;;8.60;95.70;;;;;;6209733;23;20035;-60
2022/02/04 09:50:09;;;;;;;122.50;21.02;;;8.60;95.70;;;;;;6186229;23;20028;-60
2022/02/04 10:09:36;;;;;;;105.05;18.67;;;8.80;95.60;;;;;;6232471;23;20019;-63
2022/02/04 10:17:13;;;;;;;96.35;19.23;;;8.90;95.60;;;;;;6206851;23;20014;-60
2022/02/04 10:22:20;;;;;;;103.40;18.17;;;8.90;95.60;;;;;;6236122;23;20280;-60
2022/02/04 10:25:09;;;;;;;104.22;19.45;;;8.90;95.50;;;;;;6183923;23;20085;-64
2022/02/04 10:27:35;;;;;;;147.07;19.63;;;8.90;95.50;;;;;;6207998;23;20046;-63
2022/02/04 10:30:11;;;;;;;96.95;17.38;;;9.00;95.50;;;;;;6182484;23;20338;-64
2022/02/04 10:32:48;;;;;;;105.35;16.85;;;9.00;95.50;;;;;;6204887;23;20055;-61
2022/02/04 10:35:26;;;;;;;115.43;18.45;;;9.00;95.60;;;;;;6210781;23;20007;-65
2022/02/04 10:40:54;;;;;;;98.03;17.05;;;9.00;95.60;;;;;;6187618;23;20004;-63
2022/02/04 10:46:27;;;;;;;80.53;15.50;;;9.10;95.60;;;;;;6234790;23;20034;-63
2022/02/04 11:35:47;;;;;;;114.25;16.10;;;9.40;94.30;;;;;;6209385;23;20008;-60
2022/02/04 11:55:11;;;;;;;85.25;14.38;;;9.50;93.50;;;;;;6186547;23;20348;-62
2022/02/04 11:57:56;;;;;;;93.82;14.40;;;9.50;93.10;;;;;;6233254;23;20012;-62
2022/02/04 12:00:26;;;;;;;72.43;14.98;;;9.50;93.00;;;;;;6186379;23;20016;-61
2022/02/04 12:02:52;;;;;;;57.10;14.60;;;9.50;93.10;;;;;;6183372;23;20087;-61
2022/02/04 12:05:18;;;;;;;63.08;14.48;;;9.50;93.00;;;;;;6234801;23;20086;-60
2022/02/04 12:07:53;;;;;;;65.70;14.25;;;9.50;92.80;;;;;;6233378;23;20007;-62
2022/02/04 12:10:28;;;;;;;87.35;14.88;;;9.50;92.60;;;;;;6206955;23;20011;-60
2022/02/04 12:12:58;;;;;;;105.65;15.95;;;9.50;92.60;;;;;;6233769;23;20032;-60
2022/02/04 12:15:31;;;;;;;86.65;15.32;;;9.50;92.60;;;;;;6207799;23;20547;-59
2022/02/04 12:18:11;;;;;;;94.43;15.43;;;9.60;92.70;;;;;;6206345;23;20606;-59
2022/02/04 12:20:46;;;;;;;79.65;16.20;;;9.60;92.80;;;;;;6182933;23;20118;-60
2022/02/04 12:23:30;;;;;;;80.70;14.00;;;9.60;92.80;;;;;;6232531;23;20042;-62
2022/02/04 12:26:16;;;;;;;113.93;15.13;;;9.60;92.80;;;;;;6234182;23;20438;-62
2022/02/04 12:28:41;;;;;;;83.20;16.17;;;9.60;92.80;;;;;;6235036;23;20451;-58
2022/02/04 12:31:12;;;;;;;99.78;15.77;;;9.60;92.70;;;;;;6234685;23;20008;-59
2022/02/04 12:33:55;;;;;;;148.30;21.67;;;9.70;92.80;;;;;;6232942;23;20078;-62
2022/02/04 12:36:36;;;;;;;111.57;18.52;;;9.70;92.90;;;;;;6182750;23;20015;-58
2022/02/04 12:39:05;;;;;;;125.35;18.13;;;9.70;92.90;;;;;;6159967;23;20031;-60
2022/02/04 12:41:32;;;;;;;103.00;17.63;;;9.70;92.90;;;;;;6234243;23;20015;-60
2022/02/04 12:43:59;;;;;;;121.40;18.20;;;9.70;92.90;;;;;;6179126;23;20015;-60
2022/02/04 12:46:25;;;;;;;93.78;16.48;;;9.70;92.90;;;;;;6209297;23;20613;-62
2022/02/04 12:49:11;;;;;;;105.72;15.30;;;9.80;92.80;;;;;;6156921;23;20004;-60
2022/02/04 12:51:43;;;;;;;93.20;15.73;;;9.80;92.80;;;;;;6183426;23;20011;-61
2022/02/04 12:54:09;;;;;;;90.88;14.95;;;9.70;92.60;;;;;;6207386;23;20019;-58
2022/02/04 12:56:39;;;;;;;124.57;20.95;;;9.80;92.70;;;;;;6206483;23;20035;-59
2022/02/04 12:59:39;;;;;;;111.63;18.05;;;9.80;92.70;;;;;;6207266;23;20000;-61
2022/02/04 13:02:23;;;;;;;114.40;16.30;;;9.80;92.70;;;;;;6234172;23;20279;-60
2022/02/04 13:10:09;;;;;;;;;;;9.90;92.50;;;;;;6208783;23;20012;-62
2022/02/04 13:12:56;;;;;;;83.15;14.93;;;9.90;92.50;;;;;;6180587;23;19903;-60
2022/02/04 13:15:21;;;;;;;96.63;15.02;;;9.90;92.40;;;;;;6182597;23;20000;-59
2022/02/04 13:17:47;;;;;;;117.13;18.73;;;9.90;92.40;;;;;;6204799;23;20011;-59
2022/02/04 13:20:13;;;;;;;79.20;15.10;;;10.00;92.50;;;;;;6232630;23;20039;-59
2022/02/04 13:22:39;;;;;;;79.60;14.50;;;10.00;92.30;;;;;;6206058;23;20031;-59
2022/02/04 13:25:05;;;;;;;102.80;14.98;;;10.00;92.10;;;;;;6205082;23;20030;-63
2022/02/04 13:27:31;;;;;;;101.82;16.63;;;10.00;92.10;;;;;;6233285;23;20008;-62
2022/02/04 13:29:56;;;;;;;102.72;15.82;;;10.00;92.10;;;;;;6206440;23;20011;-62
2022/02/04 13:32:25;;;;;;;95.75;15.93;;;10.00;92.10;;;;;;6181399;23;20590;-60
2022/02/04 13:34:51;;;;;;;133.82;19.67;;;10.00;92.10;;;;;;6233807;23;20377;-63
2022/02/04 13:37:30;;;;;;;83.28;15.90;;;10.10;92.00;;;;;;6207553;23;20004;-60
2022/02/04 13:40:02;;;;;;;95.60;14.43;;;10.10;92.00;;;;;;6183532;23;20004;-62
2022/02/04 13:42:46;;;;;;;101.32;15.35;;;10.10;92.00;;;;;;6208723;23;20000;-60
2022/02/04 13:45:29;;;;;;;116.80;17.13;;;10.10;92.00;;;;;;6187363;23;20000;-60
2022/02/04 13:48:03;;;;;;;145.50;21.55;;;10.10;92.10;;;;;;6234274;23;20060;-60
2022/02/04 13:53:32;;;;;;;151.25;19.63;;;10.20;92.30;;;;;;6209592;23;20004;-62
2022/02/04 13:56:15;;;;;;;171.18;21.20;;;10.20;92.30;;;;;;6212562;23;20020;-59
2022/02/04 13:58:50;;;;;;;164.48;21.00;;;10.20;92.30;;;;;;6234531;23;20007;-62
2022/02/04 14:01:25;;;;;;;104.85;17.00;;;10.20;92.30;;;;;;6209404;23;20010;-62
2022/02/04 14:03:56;;;;;;;170.93;21.23;;;10.30;92.20;;;;;;6207255;23;20497;-60
2022/02/04 14:06:26;;;;;;;134.05;19.73;;;10.30;92.20;;;;;;6182203;23;20008;-62
2022/02/04 14:09:06;;;;;;;137.38;19.42;;;10.30;92.30;;;;;;6206609;23;20004;-62
2022/02/04 14:11:36;;;;;;;157.57;21.20;;;10.30;92.30;;;;;;6209933;23;20099;-63
2022/02/04 14:14:11;;;;;;;120.22;18.30;;;10.30;92.30;;;;;;6200888;23;20030;-61
2022/02/04 14:16:38;;;;;;;132.52;19.13;;;10.30;92.20;;;;;;6231824;23;20094;-60
2022/02/04 14:19:04;;;;;;;137.77;20.05;;;10.40;92.30;;;;;;6204846;23;20008;-61
2022/02/04 14:21:30;;;;;;;138.80;19.20;;;10.40;92.20;;;;;;6232489;23;20012;-63
2022/02/04 14:24:00;;;;;;;107.88;15.40;;;10.40;92.10;;;;;;6182214;23;19996;-59
2022/02/04 14:26:36;;;;;;;144.85;17.10;;;10.40;92.10;;;;;;6206311;23;20008;-62
2022/02/04 14:29:43;;;;;;;102.13;16.05;;;10.40;91.80;;;;;;6232941;23;20020;-60
2022/02/04 14:32:00;;;;;;;130.48;16.73;;;10.40;91.80;;;;;;6207442;23;20516;-63
2022/02/04 14:37:19;;;;;;;160.95;18.80;;;10.40;91.80;;;;;;6210433;23;20010;-60
2022/02/04 14:53:42;;;;;;;112.50;16.27;;;10.50;91.50;;;;;;6188486;23;20097;-63
2022/02/04 14:59:17;;;;;;;129.73;15.10;;;10.50;91.40;;;;;;6209859;23;20094;-60
2022/02/04 15:01:49;;;;;;;95.50;14.52;;;10.50;91.40;;;;;;6234123;23;20031;-60
2022/02/04 15:04:25;;;;;;;100.70;14.82;;;10.50;91.60;;;;;;6209954;23;20091;-63
2022/02/04 15:06:58;;;;;;;99.32;14.15;;;10.50;91.50;;;;;;6229467;23;20000;-61
2022/02/04 15:09:23;;;;;;;108.85;16.23;;;10.50;91.50;;;;;;6200637;23;20007;-62
2022/02/04 15:11:49;;;;;;;148.52;17.73;;;10.50;91.50;;;;;;6205907;23;20065;-60
2022/02/04 15:14:18;;;;;;;97.03;13.27;;;10.50;91.50;;;;;;6234444;23;20012;-62
2022/02/04 15:16:44;;;;;;;169.95;17.80;;;10.50;91.40;;;;;;6183377;23;20506;-59
2022/02/04 15:19:10;;;;;;;109.18;14.38;;;10.50;91.40;;;;;;6204981;23;20000;-62
2022/02/04 15:21:35;;;;;;;104.25;15.50;;;10.50;91.40;;;;;;6207768;23;20399;-60
2022/02/04 15:24:02;;;;;;;135.75;16.83;;;10.50;91.40;;;;;;6207570;23;20004;-61
2022/02/04 15:26:28;;;;;;;130.68;15.48;;;10.60;91.40;;;;;;6234478;23;20174;-60
2022/02/04 15:29:07;;;;;;;126.88;14.68;;;10.50;91.50;;;;;;6207351;23;20090;-58
2022/02/04 15:34:01;;;;;;;132.73;15.50;;;10.60;91.40;;;;;;6234496;23;20008;-62
2022/02/04 15:36:34;;;;;;;128.60;16.65;;;10.50;91.40;;;;;;6206000;23;20459;-58
2022/02/04 15:39:00;;;;;;;152.75;17.45;;;10.60;91.40;;;;;;6229852;23;20001;-62
2022/02/04 15:41:27;;;;;;;132.93;16.02;;;10.60;91.20;;;;;;6180325;23;20004;-61
2022/02/04 15:43:56;;;;;;;136.05;16.63;;;10.50;91.20;;;;;;6178678;23;20676;-59
2022/02/04 15:54:16;;;;;;;126.95;16.48;;;10.50;91.20;;;;;;6205093;23;20062;-61
2022/02/04 16:04:58;;;;;;;217.85;25.13;;;10.60;91.10;;;;;;6185629;23;20306;-58
2022/02/04 16:07:25;;;;;;;104.05;13.95;;;10.50;91.00;;;;;;6229969;23;20004;-62
2022/02/04 16:09:58;;;;;;;128.52;16.55;;;10.50;90.70;;;;;;6230075;23;20008;-61
2022/02/04 16:12:30;;;;;;;115.50;14.07;;;10.50;90.90;;;;;;6201830;23;20004;-60
2022/02/04 16:15:11;;;;;;;136.68;14.77;;;10.50;90.70;;;;;;6232202;23;20015;-61
2022/02/04 16:17:40;;;;;;;137.15;17.02;;;10.50;90.70;;;;;;6230898;23;20040;-64
2022/02/04 16:29:48;;;;;;;107.43;14.00;;;10.60;90.90;;;;;;6199946;23;20012;-58
2022/02/04 16:32:14;;;;;;;140.38;17.73;;;10.60;90.70;;;;;;6202061;23;20008;-63
2022/02/04 16:34:40;;;;;;;142.65;16.88;;;10.50;90.70;;;;;;6228973;23;20065;-59
2022/02/04 16:37:16;;;;;;;162.32;16.92;;;10.50;90.70;;;;;;6226542;23;20012;-60
2022/02/04 16:39:43;;;;;;;111.95;15.40;;;10.50;90.70;;;;;;6230698;23;20008;-63
2022/02/04 16:42:12;;;;;;;143.93;17.67;;;10.60;90.70;;;;;;6200667;23;20088;-60
2022/02/04 16:44:38;;;;;;;118.85;15.80;;;10.60;90.80;;;;;;6202484;23;20019;-60
2022/02/04 16:47:04;;;;;;;131.18;16.20;;;10.60;90.70;;;;;;6205123;23;20008;-60
2022/02/04 16:49:30;;;;;;;166.80;19.10;;;10.60;90.70;;;;;;6201116;23;20617;-61
2022/02/04 16:51:55;;;;;;;124.25;16.38;;;10.60;90.90;;;;;;6230014;23;20038;-61
2022/02/04 16:54:23;;;;;;;141.23;19.38;;;10.50;90.80;;;;;;6178534;23;20004;-62
2022/02/04 16:56:49;;;;;;;143.77;19.15;;;10.60;90.80;;;;;;6229586;23;20047;-62
2022/02/04 16:59:14;;;;;;;156.18;17.88;;;10.50;90.90;;;;;;6205375;23;20031;-61
2022/02/04 17:01:40;;;;;;;159.75;18.98;;;10.60;91.10;;;;;;6203111;23;20004;-60
2022/02/04 17:04:06;;;;;;;163.50;17.70;;;10.60;91.10;;;;;;6202945;23;20012;-61
2022/02/04 17:06:39;;;;;;;173.32;22.45;;;10.60;90.70;;;;;;6228216;23;20010;-61
2022/02/04 17:11:44;;;;;;;188.18;22.83;;;10.60;91.10;;;;;;6182837;23;20084;-61
2022/02/04 17:14:10;;;;;;;180.60;20.55;;;10.60;91.00;;;;;;6153965;23;20094;-62
2022/02/04 17:16:41;;;;;;;130.57;17.35;;;10.60;90.80;;;;;;6203206;23;20050;-63
2022/02/04 17:19:07;;;;;;;347.92;36.60;;;10.60;90.50;;;;;;6228110;23;20008;-62
2022/02/04 17:21:34;;;;;;;224.05;23.70;;;10.70;90.70;;;;;;6174587;23;20004;-62
2022/02/04 17:24:00;;;;;;;209.95;25.00;;;10.70;90.70;;;;;;6176366;23;20008;-59
2022/02/04 17:26:26;;;;;;;230.00;27.77;;;10.70;90.80;;;;;;6203716;23;20000;-63
2022/02/04 17:28:51;;;;;;;241.40;25.48;;;10.60;90.80;;;;;;6229391;23;20012;-59
2022/02/04 17:31:17;;;;;;;185.63;22.08;;;10.60;90.60;;;;;;6229946;23;20008;-60
2022/02/04 17:33:42;;;;;;;261.67;28.75;;;10.70;90.60;;;;;;6230008;23;20092;-61
2022/02/04 17:36:08;;;;;;;389.85;42.65;;;10.70;90.80;;;;;;6227831;23;20009;-63
2022/02/04 17:38:34;;;;;;;261.40;28.50;;;10.70;90.80;;;;;;6225901;23;20007;-58
2022/02/04 17:41:00;;;;;;;240.25;28.05;;;10.70;90.70;;;;;;6202088;23;20083;-61
2022/02/04 17:43:25;;;;;;;262.75;32.58;;;10.80;90.90;;;;;;6199172;23;20012;-62
2022/02/04 17:45:51;;;;;;;241.27;28.00;;;10.80;90.90;;;;;;6176070;23;20003;-62
2022/02/04 17:48:35;;;;;;;252.05;26.77;;;10.80;90.90;;;;;;6178089;23;20005;-60
2022/02/04 17:51:12;;;;;;;403.08;41.70;;;10.80;91.00;;;;;;6228327;23;20008;-60
2022/02/04 17:53:54;;;;;;;246.43;29.25;;;10.90;90.90;;;;;;6177922;23;20012;-59
2022/02/04 18:07:13;;;;;;;224.43;26.25;;;10.90;90.90;;;;;;6232440;23;20019;-60
2022/02/04 18:09:41;;;;;;;279.48;30.08;;;10.90;90.90;;;;;;6206281;23;20011;-62
2022/02/04 18:12:07;;;;;;;209.32;22.70;;;10.90;90.90;;;;;;6204753;23;20678;-63
2022/02/04 18:14:33;;;;;;;191.00;22.65;;;10.90;90.80;;;;;;6180946;23;20043;-61
2022/02/04 18:16:59;;;;;;;183.63;22.63;;;10.90;90.60;;;;;;6204203;23;20040;-61
2022/02/04 18:19:24;;;;;;;187.35;21.50;;;10.80;90.60;;;;;;6205442;23;20000;-62
2022/02/04 18:21:50;;;;;;;219.15;26.75;;;10.80;90.70;;;;;;6200353;23;20672;-61
2022/02/04 18:24:15;;;;;;;201.20;23.70;;;11.00;90.90;;;;;;6179745;23;20520;-60
2022/02/04 18:26:41;;;;;;;182.38;22.73;;;10.80;90.90;;;;;;6230337;23;20015;-60
2022/02/04 18:29:06;;;;;;;197.05;22.50;;;10.80;90.80;;;;;;6193971;23;20066;-62
2022/02/04 18:31:33;;;;;;;173.30;21.00;;;10.80;91.00;;;;;;6201530;23;20008;-61
2022/02/04 18:34:01;;;;;;;215.30;24.08;;;10.80;90.90;;;;;;6173837;23;20146;-60
2022/02/04 18:36:28;;;;;;;194.35;23.30;;;10.90;90.90;;;;;;6177123;23;20504;-61
2022/02/04 18:39:12;;;;;;;212.55;25.27;;;10.90;91.20;;;;;;6176078;23;20099;-61
2022/02/04 18:44:13;;;;;;;198.35;23.00;;;10.90;90.80;;;;;;6205867;23;20541;-60
2022/02/04 18:49:24;;;;;;;203.82;24.05;;;10.90;90.90;;;;;;6205380;23;20055;-61
2022/02/04 18:59:20;;;;;;;166.65;21.05;;;10.90;90.70;;;;;;6202008;23;20083;-63
2022/02/04 19:01:47;;;;;;;153.95;19.20;;;10.90;91.10;;;;;;6203794;23;20032;-62
2022/02/04 19:04:17;;;;;;;230.85;23.92;;;10.90;91.00;;;;;;6203095;23;20077;-63
2022/02/04 19:06:48;;;;;;;163.23;20.52;;;10.80;91.00;;;;;;6233307;23;20333;-63
2022/02/04 19:09:13;;;;;;;213.05;23.70;;;10.90;91.10;;;;;;6179350;23;20038;-63
2022/02/04 19:11:44;;;;;;;154.10;22.88;;;10.90;91.10;;;;;;6173486;23;20073;-61
2022/02/04 19:17:02;;;;;;;210.15;26.67;;;10.90;91.10;;;;;;6202451;23;20051;-60
2022/02/04 19:19:48;;;;;;;199.98;23.52;;;10.90;91.10;;;;;;6203743;23;20028;-61
2022/02/04 19:24:41;;;;;;;224.23;22.70;;;10.90;91.10;;;;;;6204817;23;20000;-61
2022/02/04 19:27:07;;;;;;;200.48;26.60;;;11.00;91.10;;;;;;6154568;23;20065;-62
2022/02/04 19:29:34;;;;;;;167.02;21.15;;;11.00;91.00;;;;;;6206299;23;20075;-61
2022/02/04 19:32:03;;;;;;;185.15;21.98;;;11.00;90.90;;;;;;6203757;23;20004;-63
2022/02/04 19:34:29;;;;;;;164.32;22.05;;;11.00;91.00;;;;;;6229790;23;20106;-62
2022/02/04 19:36:55;;;;;;;195.27;20.92;;;10.90;91.00;;;;;;6203776;23;20509;-60
2022/02/04 19:39:22;;;;;;;146.30;20.23;;;10.90;91.10;;;;;;6180642;23;20090;-62
2022/02/04 19:41:59;;;;;;;131.38;20.20;;;10.90;91.10;;;;;;6181417;23;20094;-60